sensor_id;sensor_type;location;lat;lon;timestamp;temperature;humidity
17423;DHT22;8829;47.932;7.810;2023-09-19T00:02:04;18.00;99.90
17423;DHT22;8829;47.932;7.810;2023-09-19T00:04:31;18.00;99.90
17423;DHT22;8829;47.932;7.810;2023-09-19T00:06:58;18.00;99.90
17423;DHT22;8829;47.932;7.810;2023-09-19T00:09:25;18.00;99.90
17423;DHT22;8829;47.932;7.810;2023-09-19T00:11:53;18.00;99.90
17423;DHT22;8829;47.932;7.810;2023-09-19T00:14:19;17.90;99.90
17423;DHT22;8829;47.932;7.810;2023-09-19T00:16:50;17.90;99.90
17423;DHT22;8829;47.932;7.810;2023-09-19T00:19:18;17.90;99.90
17423;DHT22;8829;47.932;7.810;2023-09-19T00:21:44;17.90;99.90
17423;DHT22;8829;47.932;7.810;2023-09-19T00:24:12;17.90;99.90
17423;DHT22;8829;47.932;7.810;2023-09-19T00:26:39;17.80;99.90
17423;DHT22;8829;47.932;7.810;2023-09-19T00:29:06;17.80;99.90
17423;DHT22;8829;47.932;7.810;2023-09-19T00:31:34;17.70;99.90
17423;DHT22;8829;47.932;7.810;2023-09-19T00:34:03;17.70;99.90
17423;DHT22;8829;47.932;7.810;2023-09-19T00:36:36;17.70;99.90
17423;DHT22;8829;47.932;7.810;2023-09-19T00:39:05;17.70;99.90
17423;DHT22;8829;47.932;7.810;2023-09-19T00:41:31;17.70;99.90
17423;DHT22;8829;47.932;7.810;2023-09-19T00:44:01;17.60;99.90
17423;DHT22;8829;47.932;7.810;2023-09-19T00:46:28;17.60;99.90
17423;DHT22;8829;47.932;7.810;2023-09-19T00:48:56;17.60;99.90
17423;DHT22;8829;47.932;7.810;2023-09-19T00:51:23;17.50;99.90
17423;DHT22;8829;47.932;7.810;2023-09-19T00:53:52;17.50;99.90
17423;DHT22;8829;47.932;7.810;2023-09-19T00:56:19;17.50;99.90
17423;DHT22;8829;47.932;7.810;2023-09-19T00:58:46;17.60;99.90
17423;DHT22;8829;47.932;7.810;2023-09-19T01:01:14;17.70;99.90
17423;DHT22;8829;47.932;7.810;2023-09-19T01:03:40;17.70;99.90
17423;DHT22;8829;47.932;7.810;2023-09-19T01:06:07;17.70;99.90
17423;DHT22;8829;47.932;7.810;2023-09-19T01:08:34;17.80;99.90
17423;DHT22;8829;47.932;7.810;2023-09-19T01:11:09;17.70;99.90
17423;DHT22;8829;47.932;7.810;2023-09-19T01:13:48;17.80;99.90
17423;DHT22;8829;47.932;7.810;2023-09-19T01:16:32;17.80;99.90
17423;DHT22;8829;47.932;7.810;2023-09-19T01:19:22;17.70;99.90
17423;DHT22;8829;47.932;7.810;2023-09-19T01:21:57;17.70;99.90
17423;DHT22;8829;47.932;7.810;2023-09-19T01:24:47;17.80;99.90
17423;DHT22;8829;47.932;7.810;2023-09-19T01:27:47;17.80;99.90
17423;DHT22;8829;47.932;7.810;2023-09-19T01:30:22;17.70;99.90
17423;DHT22;8829;47.932;7.810;2023-09-19T01:32:52;17.70;99.90
17423;DHT22;8829;47.932;7.810;2023-09-19T01:35:19;17.70;99.90
17423;DHT22;8829;47.932;7.810;2023-09-19T01:37:46;17.70;99.90
17423;DHT22;8829;47.932;7.810;2023-09-19T01:40:15;17.80;99.90
17423;DHT22;8829;47.932;7.810;2023-09-19T01:42:50;17.80;99.90
17423;DHT22;8829;47.932;7.810;2023-09-19T01:45:28;17.80;99.90
17423;DHT22;8829;47.932;7.810;2023-09-19T01:48:09;17.80;99.90
17423;DHT22;8829;47.932;7.810;2023-09-19T01:50:44;17.80;99.90
17423;DHT22;8829;47.932;7.810;2023-09-19T01:53:21;17.80;99.90
17423;DHT22;8829;47.932;7.810;2023-09-19T01:55:50;17.70;99.90
17423;DHT22;8829;47.932;7.810;2023-09-19T01:58:21;17.70;99.90
17423;DHT22;8829;47.932;7.810;2023-09-19T02:00:51;17.70;99.90
17423;DHT22;8829;47.932;7.810;2023-09-19T02:03:20;17.70;99.90
17423;DHT22;8829;47.932;7.810;2023-09-19T02:05:49;17.70;99.90
17423;DHT22;8829;47.932;7.810;2023-09-19T02:08:17;17.70;99.90
17423;DHT22;8829;47.932;7.810;2023-09-19T02:10:45;17.70;99.90
17423;DHT22;8829;47.932;7.810;2023-09-19T02:13:15;17.70;99.90
17423;DHT22;8829;47.932;7.810;2023-09-19T02:15:42;17.60;99.90
17423;DHT22;8829;47.932;7.810;2023-09-19T02:18:11;17.60;99.90
17423;DHT22;8829;47.932;7.810;2023-09-19T02:20:38;17.60;99.90
17423;DHT22;8829;47.932;7.810;2023-09-19T02:23:06;17.60;99.90
17423;DHT22;8829;47.932;7.810;2023-09-19T02:25:33;17.50;99.90
17423;DHT22;8829;47.932;7.810;2023-09-19T02:28:00;17.50;99.90
17423;DHT22;8829;47.932;7.810;2023-09-19T02:30:28;17.50;99.90
17423;DHT22;8829;47.932;7.810;2023-09-19T02:32:55;17.50;99.90
17423;DHT22;8829;47.932;7.810;2023-09-19T02:35:23;17.60;99.90
17423;DHT22;8829;47.932;7.810;2023-09-19T02:37:51;17.60;99.90
17423;DHT22;8829;47.932;7.810;2023-09-19T02:40:18;17.60;99.90
17423;DHT22;8829;47.932;7.810;2023-09-19T02:42:49;17.60;99.90
17423;DHT22;8829;47.932;7.810;2023-09-19T02:45:19;17.60;99.90
17423;DHT22;8829;47.932;7.810;2023-09-19T02:47:47;17.60;99.90
17423;DHT22;8829;47.932;7.810;2023-09-19T02:50:14;17.50;99.90
17423;DHT22;8829;47.932;7.810;2023-09-19T02:52:43;17.50;99.90
17423;DHT22;8829;47.932;7.810;2023-09-19T02:55:10;17.50;99.90
17423;DHT22;8829;47.932;7.810;2023-09-19T02:57:38;17.50;99.90
17423;DHT22;8829;47.932;7.810;2023-09-19T03:00:07;17.40;99.90
17423;DHT22;8829;47.932;7.810;2023-09-19T03:02:36;17.40;99.90
17423;DHT22;8829;47.932;7.810;2023-09-19T03:05:04;17.40;99.90
17423;DHT22;8829;47.932;7.810;2023-09-19T03:07:31;17.30;99.90
17423;DHT22;8829;47.932;7.810;2023-09-19T03:09:59;17.30;99.90
17423;DHT22;8829;47.932;7.810;2023-09-19T03:12:25;17.20;99.90
17423;DHT22;8829;47.932;7.810;2023-09-19T03:14:52;17.30;99.90
17423;DHT22;8829;47.932;7.810;2023-09-19T03:17:19;17.20;99.90
17423;DHT22;8829;47.932;7.810;2023-09-19T03:19:46;17.30;99.90
17423;DHT22;8829;47.932;7.810;2023-09-19T03:22:13;17.30;99.90
17423;DHT22;8829;47.932;7.810;2023-09-19T03:24:40;17.30;99.90
17423;DHT22;8829;47.932;7.810;2023-09-19T03:27:10;17.20;99.90
17423;DHT22;8829;47.932;7.810;2023-09-19T03:29:39;17.30;99.90
17423;DHT22;8829;47.932;7.810;2023-09-19T03:32:06;17.30;99.90
17423;DHT22;8829;47.932;7.810;2023-09-19T03:34:36;17.20;99.90
17423;DHT22;8829;47.932;7.810;2023-09-19T03:37:03;17.20;99.90
17423;DHT22;8829;47.932;7.810;2023-09-19T03:39:30;17.30;99.90
17423;DHT22;8829;47.932;7.810;2023-09-19T03:41:56;17.30;99.90
17423;DHT22;8829;47.932;7.810;2023-09-19T03:44:24;17.30;99.90
17423;DHT22;8829;47.932;7.810;2023-09-19T03:46:51;17.30;99.90
17423;DHT22;8829;47.932;7.810;2023-09-19T03:49:18;17.20;99.90
17423;DHT22;8829;47.932;7.810;2023-09-19T03:51:44;17.20;99.90
17423;DHT22;8829;47.932;7.810;2023-09-19T03:54:11;17.20;99.90
17423;DHT22;8829;47.932;7.810;2023-09-19T03:56:39;17.10;99.90
17423;DHT22;8829;47.932;7.810;2023-09-19T03:59:05;17.10;99.90
17423;DHT22;8829;47.932;7.810;2023-09-19T04:01:35;17.10;99.90
17423;DHT22;8829;47.932;7.810;2023-09-19T04:04:02;17.10;99.90
17423;DHT22;8829;47.932;7.810;2023-09-19T04:06:33;17.00;99.90
17423;DHT22;8829;47.932;7.810;2023-09-19T04:09:00;17.00;99.90
17423;DHT22;8829;47.932;7.810;2023-09-19T04:11:28;17.00;99.90
17423;DHT22;8829;47.932;7.810;2023-09-19T04:13:55;17.00;99.90
17423;DHT22;8829;47.932;7.810;2023-09-19T04:16:22;17.10;99.90
17423;DHT22;8829;47.932;7.810;2023-09-19T04:18:50;17.10;99.90
17423;DHT22;8829;47.932;7.810;2023-09-19T04:21:16;17.10;99.90
17423;DHT22;8829;47.932;7.810;2023-09-19T04:23:44;17.10;99.90
17423;DHT22;8829;47.932;7.810;2023-09-19T04:26:11;17.10;99.90
17423;DHT22;8829;47.932;7.810;2023-09-19T04:28:38;17.10;99.90
17423;DHT22;8829;47.932;7.810;2023-09-19T04:31:06;17.10;99.90
17423;DHT22;8829;47.932;7.810;2023-09-19T04:33:34;17.10;99.90
17423;DHT22;8829;47.932;7.810;2023-09-19T04:36:02;17.10;99.90
17423;DHT22;8829;47.932;7.810;2023-09-19T04:38:30;17.10;99.90
17423;DHT22;8829;47.932;7.810;2023-09-19T04:40:58;17.10;99.90
17423;DHT22;8829;47.932;7.810;2023-09-19T04:43:25;17.10;99.90
17423;DHT22;8829;47.932;7.810;2023-09-19T04:45:51;17.10;99.90
17423;DHT22;8829;47.932;7.810;2023-09-19T04:48:21;17.10;99.90
17423;DHT22;8829;47.932;7.810;2023-09-19T04:50:49;17.10;99.90
17423;DHT22;8829;47.932;7.810;2023-09-19T04:53:17;17.00;99.90
17423;DHT22;8829;47.932;7.810;2023-09-19T04:55:50;17.10;99.90
17423;DHT22;8829;47.932;7.810;2023-09-19T04:58:16;17.00;99.90
17423;DHT22;8829;47.932;7.810;2023-09-19T05:00:44;17.00;99.90
17423;DHT22;8829;47.932;7.810;2023-09-19T05:03:11;17.00;99.90
17423;DHT22;8829;47.932;7.810;2023-09-19T05:05:38;17.00;99.90
17423;DHT22;8829;47.932;7.810;2023-09-19T05:08:06;17.00;99.90
17423;DHT22;8829;47.932;7.810;2023-09-19T05:10:36;17.00;99.90
17423;DHT22;8829;47.932;7.810;2023-09-19T05:13:03;17.00;99.90
17423;DHT22;8829;47.932;7.810;2023-09-19T05:15:30;16.90;99.90
17423;DHT22;8829;47.932;7.810;2023-09-19T05:17:57;16.90;99.90
17423;DHT22;8829;47.932;7.810;2023-09-19T05:20:24;17.00;99.90
17423;DHT22;8829;47.932;7.810;2023-09-19T05:22:58;16.90;99.90
17423;DHT22;8829;47.932;7.810;2023-09-19T05:25:26;16.90;99.90
17423;DHT22;8829;47.932;7.810;2023-09-19T05:27:56;17.00;99.90
17423;DHT22;8829;47.932;7.810;2023-09-19T05:30:24;17.00;99.90
17423;DHT22;8829;47.932;7.810;2023-09-19T05:32:52;17.10;99.90
17423;DHT22;8829;47.932;7.810;2023-09-19T05:35:19;17.10;99.90
17423;DHT22;8829;47.932;7.810;2023-09-19T05:37:47;17.20;99.90
17423;DHT22;8829;47.932;7.810;2023-09-19T05:40:16;17.30;99.90
17423;DHT22;8829;47.932;7.810;2023-09-19T05:42:43;17.30;99.90
17423;DHT22;8829;47.932;7.810;2023-09-19T05:45:11;17.40;99.90
17423;DHT22;8829;47.932;7.810;2023-09-19T05:47:38;17.40;99.90
17423;DHT22;8829;47.932;7.810;2023-09-19T05:50:10;17.40;99.90
17423;DHT22;8829;47.932;7.810;2023-09-19T05:52:37;17.50;99.90
17423;DHT22;8829;47.932;7.810;2023-09-19T05:55:04;17.20;99.90
17423;DHT22;8829;47.932;7.810;2023-09-19T05:57:32;17.30;99.90
17423;DHT22;8829;47.932;7.810;2023-09-19T05:59:59;17.30;99.90
17423;DHT22;8829;47.932;7.810;2023-09-19T06:02:28;17.30;99.90
17423;DHT22;8829;47.932;7.810;2023-09-19T06:04:55;17.30;99.90
17423;DHT22;8829;47.932;7.810;2023-09-19T06:07:22;17.30;99.90
17423;DHT22;8829;47.932;7.810;2023-09-19T06:09:51;17.30;99.90
17423;DHT22;8829;47.932;7.810;2023-09-19T06:12:18;17.40;99.90
17423;DHT22;8829;47.932;7.810;2023-09-19T06:14:44;17.40;99.90
17423;DHT22;8829;47.932;7.810;2023-09-19T06:17:11;17.50;99.90
17423;DHT22;8829;47.932;7.810;2023-09-19T06:19:39;17.60;99.90
17423;DHT22;8829;47.932;7.810;2023-09-19T06:22:07;17.60;99.90
17423;DHT22;8829;47.932;7.810;2023-09-19T06:24:34;17.60;99.90
17423;DHT22;8829;47.932;7.810;2023-09-19T06:27:01;17.50;99.90
17423;DHT22;8829;47.932;7.810;2023-09-19T06:29:29;17.50;99.90
17423;DHT22;8829;47.932;7.810;2023-09-19T06:31:56;17.50;99.90
17423;DHT22;8829;47.932;7.810;2023-09-19T06:34:23;17.50;99.90
17423;DHT22;8829;47.932;7.810;2023-09-19T06:36:53;17.50;99.90
17423;DHT22;8829;47.932;7.810;2023-09-19T06:39:21;17.60;99.90
17423;DHT22;8829;47.932;7.810;2023-09-19T06:41:49;17.70;99.90
17423;DHT22;8829;47.932;7.810;2023-09-19T06:44:15;17.70;99.90
17423;DHT22;8829;47.932;7.810;2023-09-19T06:46:42;17.60;99.90
17423;DHT22;8829;47.932;7.810;2023-09-19T06:49:09;17.70;99.90
17423;DHT22;8829;47.932;7.810;2023-09-19T06:51:38;17.60;99.90
17423;DHT22;8829;47.932;7.810;2023-09-19T06:54:06;17.80;99.90
17423;DHT22;8829;47.932;7.810;2023-09-19T06:56:33;17.80;99.90
17423;DHT22;8829;47.932;7.810;2023-09-19T06:59:00;17.90;99.90
17423;DHT22;8829;47.932;7.810;2023-09-19T07:01:28;17.90;99.90
17423;DHT22;8829;47.932;7.810;2023-09-19T07:03:57;17.90;99.90
17423;DHT22;8829;47.932;7.810;2023-09-19T07:06:24;18.00;99.90
17423;DHT22;8829;47.932;7.810;2023-09-19T07:08:50;18.10;99.90
17423;DHT22;8829;47.932;7.810;2023-09-19T07:11:19;18.10;99.90
17423;DHT22;8829;47.932;7.810;2023-09-19T07:13:46;18.20;99.90
17423;DHT22;8829;47.932;7.810;2023-09-19T07:16:13;18.20;99.90
17423;DHT22;8829;47.932;7.810;2023-09-19T07:18:52;18.20;99.90
17423;DHT22;8829;47.932;7.810;2023-09-19T07:21:20;18.10;99.90
17423;DHT22;8829;47.932;7.810;2023-09-19T07:23:47;18.30;99.90
17423;DHT22;8829;47.932;7.810;2023-09-19T07:26:15;18.50;99.90
17423;DHT22;8829;47.932;7.810;2023-09-19T07:28:43;18.80;99.90
17423;DHT22;8829;47.932;7.810;2023-09-19T07:31:09;18.90;99.90
17423;DHT22;8829;47.932;7.810;2023-09-19T07:33:37;19.10;99.90
17423;DHT22;8829;47.932;7.810;2023-09-19T07:36:04;19.20;99.90
17423;DHT22;8829;47.932;7.810;2023-09-19T07:38:31;19.10;99.90
17423;DHT22;8829;47.932;7.810;2023-09-19T07:41:00;19.20;99.90
17423;DHT22;8829;47.932;7.810;2023-09-19T07:43:27;19.10;99.90
17423;DHT22;8829;47.932;7.810;2023-09-19T07:45:55;19.00;99.90
17423;DHT22;8829;47.932;7.810;2023-09-19T07:48:22;19.10;99.90
17423;DHT22;8829;47.932;7.810;2023-09-19T07:50:49;19.10;99.90
17423;DHT22;8829;47.932;7.810;2023-09-19T07:53:16;19.10;99.90
17423;DHT22;8829;47.932;7.810;2023-09-19T07:55:43;19.10;99.90
17423;DHT22;8829;47.932;7.810;2023-09-19T07:58:13;19.30;99.90
17423;DHT22;8829;47.932;7.810;2023-09-19T08:00:41;19.50;99.90
17423;DHT22;8829;47.932;7.810;2023-09-19T08:03:09;19.50;99.90
17423;DHT22;8829;47.932;7.810;2023-09-19T08:05:40;19.60;99.90
17423;DHT22;8829;47.932;7.810;2023-09-19T08:08:08;19.60;99.90
17423;DHT22;8829;47.932;7.810;2023-09-19T08:10:36;19.60;99.90
17423;DHT22;8829;47.932;7.810;2023-09-19T08:13:05;19.50;99.90
17423;DHT22;8829;47.932;7.810;2023-09-19T08:15:33;19.40;99.90
17423;DHT22;8829;47.932;7.810;2023-09-19T08:17:59;19.50;99.90
17423;DHT22;8829;47.932;7.810;2023-09-19T08:20:28;19.50;99.90
17423;DHT22;8829;47.932;7.810;2023-09-19T08:22:55;19.50;99.90
17423;DHT22;8829;47.932;7.810;2023-09-19T08:25:22;19.50;99.90
17423;DHT22;8829;47.932;7.810;2023-09-19T08:27:51;19.20;99.90
17423;DHT22;8829;47.932;7.810;2023-09-19T08:30:19;19.30;99.90
17423;DHT22;8829;47.932;7.810;2023-09-19T08:32:49;19.40;99.90
17423;DHT22;8829;47.932;7.810;2023-09-19T08:35:16;19.40;99.90
17423;DHT22;8829;47.932;7.810;2023-09-19T08:37:44;19.30;99.90
17423;DHT22;8829;47.932;7.810;2023-09-19T08:40:11;19.20;99.90
17423;DHT22;8829;47.932;7.810;2023-09-19T08:42:49;19.30;99.90
17423;DHT22;8829;47.932;7.810;2023-09-19T08:45:16;19.40;99.90
17423;DHT22;8829;47.932;7.810;2023-09-19T08:47:46;19.50;99.90
17423;DHT22;8829;47.932;7.810;2023-09-19T08:50:21;19.70;99.90
17423;DHT22;8829;47.932;7.810;2023-09-19T08:52:51;20.00;99.90
17423;DHT22;8829;47.932;7.810;2023-09-19T08:55:23;20.00;99.90
17423;DHT22;8829;47.932;7.810;2023-09-19T08:57:57;20.20;99.90
17423;DHT22;8829;47.932;7.810;2023-09-19T09:00:26;20.20;99.90
17423;DHT22;8829;47.932;7.810;2023-09-19T09:02:54;20.20;99.90
17423;DHT22;8829;47.932;7.810;2023-09-19T09:05:22;20.40;99.90
17423;DHT22;8829;47.932;7.810;2023-09-19T09:07:51;20.70;99.90
17423;DHT22;8829;47.932;7.810;2023-09-19T09:10:21;21.10;99.90
17423;DHT22;8829;47.932;7.810;2023-09-19T09:12:49;21.20;99.90
17423;DHT22;8829;47.932;7.810;2023-09-19T09:15:18;21.40;99.90
17423;DHT22;8829;47.932;7.810;2023-09-19T09:17:47;21.60;99.90
17423;DHT22;8829;47.932;7.810;2023-09-19T09:20:16;21.80;99.90
17423;DHT22;8829;47.932;7.810;2023-09-19T09:22:52;21.80;99.90
17423;DHT22;8829;47.932;7.810;2023-09-19T09:25:20;21.60;99.90
17423;DHT22;8829;47.932;7.810;2023-09-19T09:27:58;21.40;99.90
17423;DHT22;8829;47.932;7.810;2023-09-19T09:30:36;21.30;99.90
17423;DHT22;8829;47.932;7.810;2023-09-19T09:33:09;21.30;99.90
17423;DHT22;8829;47.932;7.810;2023-09-19T09:35:37;21.30;99.90
17423;DHT22;8829;47.932;7.810;2023-09-19T09:38:08;21.40;99.90
17423;DHT22;8829;47.932;7.810;2023-09-19T09:40:46;21.20;99.90
17423;DHT22;8829;47.932;7.810;2023-09-19T09:43:25;21.20;99.90
17423;DHT22;8829;47.932;7.810;2023-09-19T09:46:10;21.30;99.90
17423;DHT22;8829;47.932;7.810;2023-09-19T09:49:05;21.30;99.90
17423;DHT22;8829;47.932;7.810;2023-09-19T09:51:43;21.10;99.90
17423;DHT22;8829;47.932;7.810;2023-09-19T09:54:15;21.20;99.90
17423;DHT22;8829;47.932;7.810;2023-09-19T09:56:55;21.20;99.90
17423;DHT22;8829;47.932;7.810;2023-09-19T09:59:44;21.00;99.90
17423;DHT22;8829;47.932;7.810;2023-09-19T10:02:13;20.90;99.90
17423;DHT22;8829;47.932;7.810;2023-09-19T10:04:42;20.70;99.90
17423;DHT22;8829;47.932;7.810;2023-09-19T10:07:28;20.70;99.90
17423;DHT22;8829;47.932;7.810;2023-09-19T10:10:00;20.60;99.90
17423;DHT22;8829;47.932;7.810;2023-09-19T10:12:41;20.20;99.90
17423;DHT22;8829;47.932;7.810;2023-09-19T10:15:11;20.40;99.90
17423;DHT22;8829;47.932;7.810;2023-09-19T10:17:43;20.30;99.90
17423;DHT22;8829;47.932;7.810;2023-09-19T10:20:16;20.30;99.90
17423;DHT22;8829;47.932;7.810;2023-09-19T10:23:00;20.30;99.90
17423;DHT22;8829;47.932;7.810;2023-09-19T10:25:29;20.00;99.90
17423;DHT22;8829;47.932;7.810;2023-09-19T10:27:58;19.90;99.90
17423;DHT22;8829;47.932;7.810;2023-09-19T10:30:29;19.80;99.90
17423;DHT22;8829;47.932;7.810;2023-09-19T10:33:00;19.80;99.90
17423;DHT22;8829;47.932;7.810;2023-09-19T10:35:27;19.80;99.90
17423;DHT22;8829;47.932;7.810;2023-09-19T10:37:56;20.00;99.90
17423;DHT22;8829;47.932;7.810;2023-09-19T10:40:24;20.10;99.90
17423;DHT22;8829;47.932;7.810;2023-09-19T10:43:01;20.10;99.90
17423;DHT22;8829;47.932;7.810;2023-09-19T10:45:31;20.30;99.90
17423;DHT22;8829;47.932;7.810;2023-09-19T10:47:58;20.40;99.90
17423;DHT22;8829;47.932;7.810;2023-09-19T10:50:28;20.50;99.90
17423;DHT22;8829;47.932;7.810;2023-09-19T10:53:00;20.60;99.90
17423;DHT22;8829;47.932;7.810;2023-09-19T10:55:31;20.70;99.90
17423;DHT22;8829;47.932;7.810;2023-09-19T10:58:02;20.80;99.90
17423;DHT22;8829;47.932;7.810;2023-09-19T11:00:51;20.90;99.90
17423;DHT22;8829;47.932;7.810;2023-09-19T11:03:20;21.10;99.90
17423;DHT22;8829;47.932;7.810;2023-09-19T11:06:02;21.20;99.90
17423;DHT22;8829;47.932;7.810;2023-09-19T11:08:51;21.30;99.90
17423;DHT22;8829;47.932;7.810;2023-09-19T11:11:41;21.20;99.90
17423;DHT22;8829;47.932;7.810;2023-09-19T11:14:41;21.10;99.90
17423;DHT22;8829;47.932;7.810;2023-09-19T11:17:41;21.10;99.90
17423;DHT22;8829;47.932;7.810;2023-09-19T11:20:23;21.00;99.90
17423;DHT22;8829;47.932;7.810;2023-09-19T11:23:17;21.00;99.90
17423;DHT22;8829;47.932;7.810;2023-09-19T11:25:43;21.00;99.90
17423;DHT22;8829;47.932;7.810;2023-09-19T11:28:33;21.00;99.90
17423;DHT22;8829;47.932;7.810;2023-09-19T11:40:10;21.10;99.90
17423;DHT22;8829;47.932;7.810;2023-09-19T11:42:42;21.00;99.90
17423;DHT22;8829;47.932;7.810;2023-09-19T11:48:11;21.10;99.90
17423;DHT22;8829;47.932;7.810;2023-09-19T11:50:41;21.10;99.90
17423;DHT22;8829;47.932;7.810;2023-09-19T11:53:11;21.30;99.90
17423;DHT22;8829;47.932;7.810;2023-09-19T11:55:39;21.40;99.90
17423;DHT22;8829;47.932;7.810;2023-09-19T11:58:08;21.40;99.90
17423;DHT22;8829;47.932;7.810;2023-09-19T12:00:38;21.50;99.90
17423;DHT22;8829;47.932;7.810;2023-09-19T12:03:09;21.60;99.90
17423;DHT22;8829;47.932;7.810;2023-09-19T12:05:36;21.50;99.90
17423;DHT22;8829;47.932;7.810;2023-09-19T12:08:04;21.40;99.90
17423;DHT22;8829;47.932;7.810;2023-09-19T12:10:45;21.20;99.90
17423;DHT22;8829;47.932;7.810;2023-09-19T12:13:16;21.20;99.90
17423;DHT22;8829;47.932;7.810;2023-09-19T12:15:43;21.30;99.90
17423;DHT22;8829;47.932;7.810;2023-09-19T12:18:25;21.50;99.90
17423;DHT22;8829;47.932;7.810;2023-09-19T12:20:52;21.50;99.90
17423;DHT22;8829;47.932;7.810;2023-09-19T12:23:20;21.50;99.90
17423;DHT22;8829;47.932;7.810;2023-09-19T12:25:48;21.50;99.90
17423;DHT22;8829;47.932;7.810;2023-09-19T12:28:18;21.50;99.90
17423;DHT22;8829;47.932;7.810;2023-09-19T12:30:47;21.70;99.90
17423;DHT22;8829;47.932;7.810;2023-09-19T12:33:19;21.80;99.90
17423;DHT22;8829;47.932;7.810;2023-09-19T12:35:47;21.80;99.90
17423;DHT22;8829;47.932;7.810;2023-09-19T12:38:23;21.90;99.90
17423;DHT22;8829;47.932;7.810;2023-09-19T12:40:51;22.00;99.90
17423;DHT22;8829;47.932;7.810;2023-09-19T12:43:18;22.00;99.90
17423;DHT22;8829;47.932;7.810;2023-09-19T12:45:45;22.00;99.90
17423;DHT22;8829;47.932;7.810;2023-09-19T12:48:21;22.00;99.90
17423;DHT22;8829;47.932;7.810;2023-09-19T12:51:04;22.00;99.90
17423;DHT22;8829;47.932;7.810;2023-09-19T12:53:33;22.00;99.90
17423;DHT22;8829;47.932;7.810;2023-09-19T12:56:06;22.00;99.90
17423;DHT22;8829;47.932;7.810;2023-09-19T12:58:48;22.10;99.90
17423;DHT22;8829;47.932;7.810;2023-09-19T13:01:15;22.20;99.90
17423;DHT22;8829;47.932;7.810;2023-09-19T13:03:42;22.30;99.90
17423;DHT22;8829;47.932;7.810;2023-09-19T13:06:08;22.30;99.90
17423;DHT22;8829;47.932;7.810;2023-09-19T13:08:37;22.30;99.90
17423;DHT22;8829;47.932;7.810;2023-09-19T13:11:12;22.50;99.90
17423;DHT22;8829;47.932;7.810;2023-09-19T13:13:41;22.50;99.90
17423;DHT22;8829;47.932;7.810;2023-09-19T13:16:09;22.60;99.90
17423;DHT22;8829;47.932;7.810;2023-09-19T13:18:46;22.60;99.90
17423;DHT22;8829;47.932;7.810;2023-09-19T13:21:16;22.50;99.90
17423;DHT22;8829;47.932;7.810;2023-09-19T13:23:50;22.50;99.90
17423;DHT22;8829;47.932;7.810;2023-09-19T13:26:19;22.40;99.90
17423;DHT22;8829;47.932;7.810;2023-09-19T13:28:46;22.40;99.90
17423;DHT22;8829;47.932;7.810;2023-09-19T13:31:15;22.30;99.90
17423;DHT22;8829;47.932;7.810;2023-09-19T13:33:44;22.20;99.90
17423;DHT22;8829;47.932;7.810;2023-09-19T13:36:12;22.20;99.90
17423;DHT22;8829;47.932;7.810;2023-09-19T13:38:39;22.10;99.90
17423;DHT22;8829;47.932;7.810;2023-09-19T13:41:07;22.20;99.90
17423;DHT22;8829;47.932;7.810;2023-09-19T13:43:36;22.30;99.90
17423;DHT22;8829;47.932;7.810;2023-09-19T13:46:04;22.20;99.90
17423;DHT22;8829;47.932;7.810;2023-09-19T13:48:32;22.20;99.90
17423;DHT22;8829;47.932;7.810;2023-09-19T13:51:02;22.20;99.90
17423;DHT22;8829;47.932;7.810;2023-09-19T13:53:28;22.30;99.90
17423;DHT22;8829;47.932;7.810;2023-09-19T13:55:55;22.40;99.90
17423;DHT22;8829;47.932;7.810;2023-09-19T13:58:22;22.50;99.90
17423;DHT22;8829;47.932;7.810;2023-09-19T14:00:50;22.60;99.90
17423;DHT22;8829;47.932;7.810;2023-09-19T14:03:20;22.60;99.90
17423;DHT22;8829;47.932;7.810;2023-09-19T14:05:47;22.60;99.90
17423;DHT22;8829;47.932;7.810;2023-09-19T14:08:17;22.70;99.90
17423;DHT22;8829;47.932;7.810;2023-09-19T14:10:43;22.60;99.90
17423;DHT22;8829;47.932;7.810;2023-09-19T14:13:10;22.60;99.90
17423;DHT22;8829;47.932;7.810;2023-09-19T14:15:38;22.60;99.90
17423;DHT22;8829;47.932;7.810;2023-09-19T14:18:06;22.50;99.90
17423;DHT22;8829;47.932;7.810;2023-09-19T14:20:38;22.40;99.90
17423;DHT22;8829;47.932;7.810;2023-09-19T14:23:04;22.50;99.90
17423;DHT22;8829;47.932;7.810;2023-09-19T14:25:34;22.50;99.90
17423;DHT22;8829;47.932;7.810;2023-09-19T14:28:01;22.50;99.90
17423;DHT22;8829;47.932;7.810;2023-09-19T14:30:27;22.60;99.90
17423;DHT22;8829;47.932;7.810;2023-09-19T14:32:54;22.60;99.90
17423;DHT22;8829;47.932;7.810;2023-09-19T14:35:22;22.60;99.90
17423;DHT22;8829;47.932;7.810;2023-09-19T14:37:49;22.40;99.90
17423;DHT22;8829;47.932;7.810;2023-09-19T14:40:15;22.40;99.90
17423;DHT22;8829;47.932;7.810;2023-09-19T14:42:43;22.30;99.90
17423;DHT22;8829;47.932;7.810;2023-09-19T14:45:10;22.30;99.90
17423;DHT22;8829;47.932;7.810;2023-09-19T14:47:40;22.30;99.90
17423;DHT22;8829;47.932;7.810;2023-09-19T14:50:07;22.40;99.90
17423;DHT22;8829;47.932;7.810;2023-09-19T14:52:36;22.40;99.90
17423;DHT22;8829;47.932;7.810;2023-09-19T14:55:03;22.40;99.90
17423;DHT22;8829;47.932;7.810;2023-09-19T14:57:31;22.40;99.90
17423;DHT22;8829;47.932;7.810;2023-09-19T14:59:58;22.40;99.90
17423;DHT22;8829;47.932;7.810;2023-09-19T15:02:25;22.40;99.90
17423;DHT22;8829;47.932;7.810;2023-09-19T15:04:52;22.40;99.90
17423;DHT22;8829;47.932;7.810;2023-09-19T15:07:19;22.40;99.90
17423;DHT22;8829;47.932;7.810;2023-09-19T15:09:47;22.40;99.90
17423;DHT22;8829;47.932;7.810;2023-09-19T15:12:13;22.30;99.90
17423;DHT22;8829;47.932;7.810;2023-09-19T15:14:42;22.20;99.90
17423;DHT22;8829;47.932;7.810;2023-09-19T15:17:09;22.20;99.90
17423;DHT22;8829;47.932;7.810;2023-09-19T15:19:35;22.20;99.90
17423;DHT22;8829;47.932;7.810;2023-09-19T15:22:03;22.20;99.90
17423;DHT22;8829;47.932;7.810;2023-09-19T15:24:31;22.30;99.90
17423;DHT22;8829;47.932;7.810;2023-09-19T15:26:59;22.30;99.90
17423;DHT22;8829;47.932;7.810;2023-09-19T15:29:25;22.30;99.90
17423;DHT22;8829;47.932;7.810;2023-09-19T15:31:55;22.20;99.90
17423;DHT22;8829;47.932;7.810;2023-09-19T15:34:22;22.20;99.90
17423;DHT22;8829;47.932;7.810;2023-09-19T15:36:49;22.20;99.90
17423;DHT22;8829;47.932;7.810;2023-09-19T15:39:17;22.20;99.90
17423;DHT22;8829;47.932;7.810;2023-09-19T15:41:45;22.20;99.90
17423;DHT22;8829;47.932;7.810;2023-09-19T15:44:17;22.20;99.90
17423;DHT22;8829;47.932;7.810;2023-09-19T15:46:45;22.20;99.90
17423;DHT22;8829;47.932;7.810;2023-09-19T15:49:12;22.10;99.90
17423;DHT22;8829;47.932;7.810;2023-09-19T15:51:39;22.10;99.90
17423;DHT22;8829;47.932;7.810;2023-09-19T15:54:08;22.00;99.90
17423;DHT22;8829;47.932;7.810;2023-09-19T15:56:35;22.00;99.90
17423;DHT22;8829;47.932;7.810;2023-09-19T15:59:02;22.00;99.90
17423;DHT22;8829;47.932;7.810;2023-09-19T16:01:30;22.00;99.90
17423;DHT22;8829;47.932;7.810;2023-09-19T16:03:57;21.90;99.90
17423;DHT22;8829;47.932;7.810;2023-09-19T16:06:25;22.00;99.90
17423;DHT22;8829;47.932;7.810;2023-09-19T16:08:53;22.00;99.90
17423;DHT22;8829;47.932;7.810;2023-09-19T16:11:22;21.90;99.90
17423;DHT22;8829;47.932;7.810;2023-09-19T16:13:50;21.80;99.90